Puchberg am Schneeberg, Austria

11:31 PM CST on February 27, 2015 (GMT -0600)
CEA-ROCHERA | Change Station
CLOSE
Current Station
Personal Weather Station
Location: SANTA ROSA JAUREGUI, QUERETARO
Elevation: 8041 ft
Nearby Weather Stations

Elev 8041 ft 20.78 °N, 100.54 °W | Updated 1 minute ago

Scattered Clouds
Scattered Clouds
53.2 °F
Feels Like 53.2 °F
N
9.0
Wind Variable Wind from SSW
Gusts 9.0 mph

Today
High -- | Low -- °F
--% Chance of Precip.
Yesterday
High -- | Low -- °F
Precip. -- in
7:04 AM 6:45 PM
Waxing Gibbous, 74% visible
Pressure 30.23 in
Visibility 7.0 miles
Clouds Scattered Clouds 2500 ft
Scattered Clouds 25000 ft
Dew Point 40 °F
Humidity 60%
Rainfall 0.00 in
Snow Depth Not available.
UV 0.0 out of 12
Pollen Not available.
Air Quality Not available.
Flu Activity Not available.
METAR MMQT 280445Z 11006KT 7SM SCT025 SCT250 10/06 A3023 RMK 8/501

More Conditions Fewer Conditions

Pressure 30.23 in
Visibility 7.0 miles
Clouds Scattered Clouds 2500 ft
Scattered Clouds 25000 ft
Dew Point 40 °F
Humidity 60%
Rainfall 0.00 in
Snow Depth Not available.
UV 0.0 out of 12
Pollen Not available.
Air Quality Not available.
Flu Activity Not available.
METAR MMQT 280445Z 11006KT 7SM SCT025 SCT250 10/06 A3023 RMK 8/501

More Conditions Fewer Conditions

10-Day Weather Forecast

Almanac

Astronomy

Feb. 27, 2015 Rise Set
Actual Time
Civil Twilight
Nautical Twilight
Astronomical Twilight
Moon
Length of Visible Light
Length of Day
Tomorrow will be .
, % of the Moon is Illuminated

Today's Extremes

Country Highs Country Lows

Community

WunderPhotos

Upload Photos

1,800,973 photos uploaded!

WunderBlogs® & News

Nearby

Air Quality

  Air Quality AQ Index Pollutant
Not available.

Snow Depth

Station Depth Elevation

Earthquake Activity

City Distance Mag. Time & Date
Minimum magnitude displayed is 2.5.

Coastal Water Temperatures

Place Temperature

Nearby Weather Stations